Данни от 15.11.2018 г. 00:14:00

Температура вътрешна: 20.5 °C
Температура външна: 9.8 °C
Атмосферно налягане: 1006.1 hPa
Атмосферно налягане на морско равнище: 1024.1 hPa
Влажност: 59.7 %



История от последните 24 часа

Дата и часTin [°C]P [hPa]Psl [hPa]H [%]Tout [°C]
   15.11.2018 г. 00:00:00      20.6      1006.2      1024.1      60.2      9.8   
   14.11.2018 г. 23:30:00      20.6      1006.4      1024.4      59.6      9.8   
   14.11.2018 г. 23:00:00      20.7      1006.7      1024.6      59.5      9.8   
   14.11.2018 г. 22:30:00      20.7      1006.7      1024.7      59.2      9.8   
   14.11.2018 г. 22:00:01      20.7      1006.9      1024.9      58.8      9.8   
   14.11.2018 г. 21:30:00      20.5      1007.0      1025.0      59.1      9.6   
   14.11.2018 г. 21:00:01      20.3      1007.0      1025.0      59.8      9.5   
   14.11.2018 г. 20:30:00      20.3      1007.0      1025.0      59.3      9.5   
   14.11.2018 г. 20:00:01      20.2      1007.0      1025.0      58.9      9.4   
   14.11.2018 г. 19:30:00      20.1      1007.1      1025.1      58.8      9.5   
   14.11.2018 г. 19:00:01      20.0      1007.1      1025.1      58.9      9.9   
   14.11.2018 г. 18:30:00      19.9      1007.2      1025.2      58.7      9.8   
   14.11.2018 г. 18:00:01      19.8      1007.4      1025.4      58.4      10.1   
   14.11.2018 г. 17:30:00      19.8      1007.3      1025.3      56.8      10.9   
   14.11.2018 г. 17:00:01      19.7      1007.0      1025.0      56.7      11.1   
   14.11.2018 г. 16:30:00      19.7      1006.8      1024.8      56.7      11.5   
   14.11.2018 г. 16:00:01      19.7      1006.8      1024.8      57.1      11.9   
   14.11.2018 г. 15:30:00      19.5      1007.2      1025.2      57.3      12.3   
   14.11.2018 г. 15:00:00      19.5      1007.2      1025.2      57.2      12.5   
   14.11.2018 г. 14:30:00      19.3      1007.3      1025.3      56.9      12.9   
   14.11.2018 г. 14:00:00      19.2      1007.4      1025.4      58.0      12.3   
   14.11.2018 г. 13:30:00      19.1      1007.7      1025.7      57.4      11.1   
   14.11.2018 г. 13:00:00      19.0      1008.1      1026.1      57.5      9.9   
   14.11.2018 г. 12:30:00      18.8      1008.7      1026.7      57.2      9.3   
   14.11.2018 г. 12:00:00      18.7      1008.7      1026.7      57.1      9.0   
   14.11.2018 г. 11:30:00      18.8      1009.0      1027.0      57.1      8.6   
   14.11.2018 г. 11:00:00      18.7      1009.7      1027.7      57.4      8.1   
   14.11.2018 г. 10:30:01      18.7      1009.8      1027.9      58.1      8.0   
   14.11.2018 г. 10:00:00      18.8      1009.7      1027.8      58.2      7.8   
   14.11.2018 г. 09:30:00      18.9      1009.5      1027.5      58.6      7.5   
   14.11.2018 г. 09:00:00      18.9      1009.7      1027.7      58.9      7.3   
   14.11.2018 г. 08:30:00      18.9      1009.7      1027.7      58.3      7.0   
   14.11.2018 г. 08:00:00      19.0      1009.8      1027.8      59.1      6.6   
   14.11.2018 г. 07:30:01      19.2      1009.7      1027.7      58.7      6.4   
   14.11.2018 г. 07:00:00      19.2      1009.4      1027.4      59.8      6.1   
   14.11.2018 г. 06:30:01      19.3      1009.6      1027.6      59.6      6.1   
   14.11.2018 г. 06:00:00      19.4      1009.6      1027.6      60.2      6.1   
   14.11.2018 г. 05:30:01      19.8      1009.8      1027.8      60.0      6.0   
   14.11.2018 г. 05:00:00      19.8      1009.7      1027.8      60.5      5.9   
   14.11.2018 г. 04:30:01      19.9      1009.7      1027.7      60.0      5.9   
   14.11.2018 г. 04:00:00      20.0      1009.6      1027.6      60.0      5.9   
   14.11.2018 г. 03:30:01      20.0      1009.8      1027.8      59.6      5.8   
   14.11.2018 г. 03:00:00      20.1      1009.9      1027.9      60.1      5.8   
   14.11.2018 г. 02:30:01      20.1      1010.2      1028.2      59.9      5.4   
   14.11.2018 г. 02:00:00      20.2      1010.3      1028.4      59.5      5.4   
   14.11.2018 г. 01:30:01      20.2      1010.7      1028.7      60.0      5.4   
   14.11.2018 г. 01:00:00      20.3      1010.9      1029.0      59.4      5.4   
   14.11.2018 г. 00:30:01      20.4      1011.1      1029.2      59.0      5.3   

BaroSL graphic

TEMPE graphic